CheckWX is a tool to help pilots better visualize weather data.  It is not intended as a substitute for an official pre-flight weather briefing.

07:18:51 UTC

KIDA TAF
Idaho Falls Regional Airport
Idaho Falls, Idaho, USA
KIDA 230525Z 2306/2406 36007KT P6SM FEW170 FM232300 21011KT P6SM SCT130 FM240000 21015G25KT P6SM VCSH SCT050 TEMPO 2403/2404 21020G30KT 2SM -SN BR BKN020 FM240400 22018G28KT P6SM VCSH SCT050

Feb-23@
06:00 UTC

Feb-23 @ 06:00 UTC

Feb-23@
23:00 UTC

Feb-23 @ 23:00 UTC

KIDA 230525Z 2306/2406 36007KT P6SM FEW170
Wind
  • 360° at 7 KTS
Cloud Levels
  • Few at 17,000' AGL

Feb-23@
23:00 UTC

Feb-23 @ 23:00 UTC

Feb-24@
00:00 UTC

Feb-24 @ 00:00 UTC

FM232300 21011KT P6SM SCT130

From

From Standard forecast or significant change

Wind
  • 210° at 11 KTS
Cloud Levels
  • Scattered at 13,000' AGL

Feb-24@
00:00 UTC

Feb-24 @ 00:00 UTC

Feb-24@
04:00 UTC

Feb-24 @ 04:00 UTC

FM240000 21015G25KT P6SM VCSH SCT050

From

From Standard forecast or significant change

Wind
  • 210° at 15 KTS
  • {Gusting to 25 KTS
Cloud Levels
  • Scattered at 5,000' AGL

Feb-24@
03:00 UTC

Feb-24 @ 03:00 UTC

Feb-24@
04:00 UTC

Feb-24 @ 04:00 UTC

TEMPO 2403/2404 21020G30KT 2SM -SN BR BKN020

Temporary

Temporary Changes expected for less than half the time period

Wind
  • 210° at 20 KTS
  • {Gusting to 30 KTS
Conditions
Light Snow, Mist
Cloud Levels
  • Broken at 2,000' AGL

Feb-24@
04:00 UTC

Feb-24 @ 04:00 UTC

Feb-24@
06:00 UTC

Feb-24 @ 06:00 UTC

FM240400 22018G28KT P6SM VCSH SCT050

From

From Standard forecast or significant change

Wind
  • 220° at 18 KTS
  • {Gusting to 28 KTS
Cloud Levels
  • Scattered at 5,000' AGL